sensor_id;sensor_type;location;lat;lon;timestamp;P1;durP1;ratioP1;P2;durP2;ratioP2
12699;SDS011;6414;49.570;6.060;2023-08-21T00:02:35;4.07;;;1.07;;
12699;SDS011;6414;49.570;6.060;2023-08-21T00:05:21;0.77;;;0.77;;
12699;SDS011;6414;49.570;6.060;2023-08-21T00:08:06;1.23;;;0.90;;
12699;SDS011;6414;49.570;6.060;2023-08-21T00:10:53;2.27;;;1.27;;
12699;SDS011;6414;49.570;6.060;2023-08-21T00:13:39;1.07;;;0.97;;
12699;SDS011;6414;49.570;6.060;2023-08-21T00:16:25;3.35;;;1.00;;
12699;SDS011;6414;49.570;6.060;2023-08-21T00:19:12;2.10;;;0.87;;
12699;SDS011;6414;49.570;6.060;2023-08-21T00:21:58;0.73;;;0.60;;
12699;SDS011;6414;49.570;6.060;2023-08-21T00:24:44;0.77;;;0.77;;
12699;SDS011;6414;49.570;6.060;2023-08-21T00:27:30;1.73;;;0.80;;
12699;SDS011;6414;49.570;6.060;2023-08-21T00:30:16;0.67;;;0.67;;
12699;SDS011;6414;49.570;6.060;2023-08-21T00:33:02;0.50;;;0.50;;
12699;SDS011;6414;49.570;6.060;2023-08-21T00:35:51;1.92;;;1.30;;
12699;SDS011;6414;49.570;6.060;2023-08-21T00:38:38;0.80;;;0.80;;
12699;SDS011;6414;49.570;6.060;2023-08-21T00:41:24;0.67;;;0.63;;
12699;SDS011;6414;49.570;6.060;2023-08-21T00:44:10;1.20;;;0.73;;
12699;SDS011;6414;49.570;6.060;2023-08-21T00:46:56;1.67;;;0.90;;
12699;SDS011;6414;49.570;6.060;2023-08-21T00:49:42;0.83;;;0.67;;
12699;SDS011;6414;49.570;6.060;2023-08-21T00:52:29;5.33;;;1.07;;
12699;SDS011;6414;49.570;6.060;2023-08-21T00:55:15;1.50;;;1.17;;
12699;SDS011;6414;49.570;6.060;2023-08-21T00:58:02;0.97;;;0.87;;
12699;SDS011;6414;49.570;6.060;2023-08-21T01:00:48;1.67;;;0.93;;
12699;SDS011;6414;49.570;6.060;2023-08-21T01:03:34;1.43;;;1.00;;
12699;SDS011;6414;49.570;6.060;2023-08-21T01:06:20;2.90;;;1.17;;
12699;SDS011;6414;49.570;6.060;2023-08-21T01:10:10;0.87;;;0.70;;
12699;SDS011;6414;49.570;6.060;2023-08-21T01:15:07;3.63;;;0.73;;
12699;SDS011;6414;49.570;6.060;2023-08-21T01:17:53;1.33;;;0.97;;
12699;SDS011;6414;49.570;6.060;2023-08-21T01:20:39;0.93;;;0.50;;
12699;SDS011;6414;49.570;6.060;2023-08-21T01:23:44;0.87;;;0.67;;
12699;SDS011;6414;49.570;6.060;2023-08-21T01:26:20;1.27;;;0.80;;
12699;SDS011;6414;49.570;6.060;2023-08-21T01:29:06;3.00;;;0.73;;
12699;SDS011;6414;49.570;6.060;2023-08-21T01:34:42;2.10;;;0.83;;
12699;SDS011;6414;49.570;6.060;2023-08-21T01:37:28;0.90;;;0.90;;
12699;SDS011;6414;49.570;6.060;2023-08-21T01:40:19;1.53;;;1.30;;
12699;SDS011;6414;49.570;6.060;2023-08-21T01:43:00;1.07;;;0.93;;
12699;SDS011;6414;49.570;6.060;2023-08-21T01:45:47;1.27;;;1.08;;
12699;SDS011;6414;49.570;6.060;2023-08-21T01:48:34;1.80;;;1.10;;
12699;SDS011;6414;49.570;6.060;2023-08-21T01:51:20;1.43;;;1.10;;
12699;SDS011;6414;49.570;6.060;2023-08-21T01:54:07;1.07;;;0.90;;
12699;SDS011;6414;49.570;6.060;2023-08-21T01:56:53;0.90;;;0.67;;
12699;SDS011;6414;49.570;6.060;2023-08-21T01:59:39;1.40;;;1.10;;
12699;SDS011;6414;49.570;6.060;2023-08-21T02:02:25;1.17;;;0.80;;
12699;SDS011;6414;49.570;6.060;2023-08-21T02:05:11;1.00;;;0.70;;
12699;SDS011;6414;49.570;6.060;2023-08-21T02:07:57;0.73;;;0.73;;
12699;SDS011;6414;49.570;6.060;2023-08-21T02:10:47;1.53;;;0.80;;
12699;SDS011;6414;49.570;6.060;2023-08-21T02:13:35;1.03;;;1.00;;
12699;SDS011;6414;49.570;6.060;2023-08-21T02:16:21;0.77;;;0.70;;
12699;SDS011;6414;49.570;6.060;2023-08-21T02:19:07;1.97;;;1.03;;
12699;SDS011;6414;49.570;6.060;2023-08-21T02:21:53;1.77;;;1.17;;
12699;SDS011;6414;49.570;6.060;2023-08-21T02:24:39;8.90;;;1.13;;
12699;SDS011;6414;49.570;6.060;2023-08-21T02:27:25;1.00;;;0.80;;
12699;SDS011;6414;49.570;6.060;2023-08-21T02:30:12;1.33;;;0.97;;
12699;SDS011;6414;49.570;6.060;2023-08-21T02:32:58;3.10;;;1.07;;
12699;SDS011;6414;49.570;6.060;2023-08-21T02:35:45;3.40;;;1.30;;
12699;SDS011;6414;49.570;6.060;2023-08-21T02:38:31;1.63;;;1.13;;
12699;SDS011;6414;49.570;6.060;2023-08-21T02:41:17;1.77;;;1.40;;
12699;SDS011;6414;49.570;6.060;2023-08-21T02:44:03;4.30;;;1.00;;
12699;SDS011;6414;49.570;6.060;2023-08-21T02:46:49;2.03;;;1.37;;
12699;SDS011;6414;49.570;6.060;2023-08-21T02:49:35;1.27;;;0.90;;
12699;SDS011;6414;49.570;6.060;2023-08-21T02:52:23;0.70;;;0.70;;
12699;SDS011;6414;49.570;6.060;2023-08-21T02:55:08;2.23;;;1.27;;
12699;SDS011;6414;49.570;6.060;2023-08-21T02:57:55;2.50;;;1.17;;
12699;SDS011;6414;49.570;6.060;2023-08-21T03:00:41;1.67;;;0.60;;
12699;SDS011;6414;49.570;6.060;2023-08-21T03:03:27;3.73;;;0.87;;
12699;SDS011;6414;49.570;6.060;2023-08-21T03:06:13;3.10;;;1.13;;
12699;SDS011;6414;49.570;6.060;2023-08-21T03:09:00;9.00;;;0.97;;
12699;SDS011;6414;49.570;6.060;2023-08-21T03:11:46;1.23;;;0.90;;
12699;SDS011;6414;49.570;6.060;2023-08-21T03:14:32;1.23;;;0.80;;
12699;SDS011;6414;49.570;6.060;2023-08-21T03:17:18;0.60;;;0.60;;
12699;SDS011;6414;49.570;6.060;2023-08-21T03:20:04;3.97;;;1.37;;
12699;SDS011;6414;49.570;6.060;2023-08-21T03:22:51;4.73;;;0.90;;
12699;SDS011;6414;49.570;6.060;2023-08-21T03:25:38;1.23;;;1.00;;
12699;SDS011;6414;49.570;6.060;2023-08-21T03:28:24;3.43;;;1.10;;
12699;SDS011;6414;49.570;6.060;2023-08-21T03:31:11;0.80;;;0.70;;
12699;SDS011;6414;49.570;6.060;2023-08-21T03:33:58;2.77;;;1.30;;
12699;SDS011;6414;49.570;6.060;2023-08-21T03:36:44;1.27;;;1.00;;
12699;SDS011;6414;49.570;6.060;2023-08-21T03:39:30;2.67;;;1.20;;
12699;SDS011;6414;49.570;6.060;2023-08-21T03:42:16;1.00;;;0.70;;
12699;SDS011;6414;49.570;6.060;2023-08-21T03:45:02;1.67;;;1.47;;
12699;SDS011;6414;49.570;6.060;2023-08-21T03:47:48;1.00;;;0.90;;
12699;SDS011;6414;49.570;6.060;2023-08-21T03:50:34;1.90;;;1.33;;
12699;SDS011;6414;49.570;6.060;2023-08-21T03:53:20;1.97;;;1.10;;
12699;SDS011;6414;49.570;6.060;2023-08-21T03:56:07;1.97;;;1.33;;
12699;SDS011;6414;49.570;6.060;2023-08-21T03:58:53;1.43;;;1.33;;
12699;SDS011;6414;49.570;6.060;2023-08-21T04:01:39;2.90;;;1.50;;
12699;SDS011;6414;49.570;6.060;2023-08-21T04:04:26;1.80;;;1.70;;
12699;SDS011;6414;49.570;6.060;2023-08-21T04:07:13;1.83;;;1.20;;
12699;SDS011;6414;49.570;6.060;2023-08-21T04:09:59;10.43;;;1.40;;
12699;SDS011;6414;49.570;6.060;2023-08-21T04:12:45;3.23;;;1.33;;
12699;SDS011;6414;49.570;6.060;2023-08-21T04:15:33;2.83;;;1.63;;
12699;SDS011;6414;49.570;6.060;2023-08-21T04:18:17;1.90;;;1.33;;
12699;SDS011;6414;49.570;6.060;2023-08-21T04:21:04;2.60;;;1.50;;
12699;SDS011;6414;49.570;6.060;2023-08-21T04:23:49;1.30;;;0.90;;
12699;SDS011;6414;49.570;6.060;2023-08-21T04:26:36;2.77;;;1.40;;
12699;SDS011;6414;49.570;6.060;2023-08-21T04:29:22;1.77;;;1.23;;
12699;SDS011;6414;49.570;6.060;2023-08-21T04:32:08;2.95;;;2.08;;
12699;SDS011;6414;49.570;6.060;2023-08-21T04:34:55;3.17;;;1.40;;
12699;SDS011;6414;49.570;6.060;2023-08-21T04:37:46;3.03;;;1.43;;
12699;SDS011;6414;49.570;6.060;2023-08-21T04:40:30;3.17;;;1.70;;
12699;SDS011;6414;49.570;6.060;2023-08-21T04:43:16;2.67;;;1.30;;
12699;SDS011;6414;49.570;6.060;2023-08-21T04:46:03;2.37;;;1.83;;
12699;SDS011;6414;49.570;6.060;2023-08-21T04:48:49;3.47;;;1.73;;
12699;SDS011;6414;49.570;6.060;2023-08-21T04:51:36;2.73;;;1.30;;
12699;SDS011;6414;49.570;6.060;2023-08-21T04:54:23;3.93;;;1.80;;
12699;SDS011;6414;49.570;6.060;2023-08-21T04:57:09;3.70;;;2.27;;
12699;SDS011;6414;49.570;6.060;2023-08-21T04:59:55;1.73;;;1.53;;
12699;SDS011;6414;49.570;6.060;2023-08-21T05:02:41;1.57;;;1.30;;
12699;SDS011;6414;49.570;6.060;2023-08-21T05:05:28;1.83;;;1.60;;
12699;SDS011;6414;49.570;6.060;2023-08-21T05:08:15;2.60;;;1.60;;
12699;SDS011;6414;49.570;6.060;2023-08-21T05:11:01;3.67;;;1.90;;
12699;SDS011;6414;49.570;6.060;2023-08-21T05:13:47;5.70;;;2.80;;
12699;SDS011;6414;49.570;6.060;2023-08-21T05:16:33;2.47;;;1.70;;
12699;SDS011;6414;49.570;6.060;2023-08-21T05:19:19;2.90;;;1.67;;
12699;SDS011;6414;49.570;6.060;2023-08-21T05:22:05;3.60;;;2.17;;
12699;SDS011;6414;49.570;6.060;2023-08-21T05:24:51;3.13;;;1.53;;
12699;SDS011;6414;49.570;6.060;2023-08-21T05:27:39;2.97;;;1.77;;
12699;SDS011;6414;49.570;6.060;2023-08-21T05:30:25;2.67;;;1.63;;
12699;SDS011;6414;49.570;6.060;2023-08-21T05:33:11;2.80;;;2.00;;
12699;SDS011;6414;49.570;6.060;2023-08-21T05:35:57;4.03;;;2.17;;
12699;SDS011;6414;49.570;6.060;2023-08-21T05:38:44;6.73;;;1.90;;
12699;SDS011;6414;49.570;6.060;2023-08-21T05:41:30;3.17;;;1.60;;
12699;SDS011;6414;49.570;6.060;2023-08-21T05:44:16;3.17;;;2.00;;
12699;SDS011;6414;49.570;6.060;2023-08-21T05:47:02;2.33;;;1.53;;
12699;SDS011;6414;49.570;6.060;2023-08-21T05:49:47;4.43;;;1.40;;
12699;SDS011;6414;49.570;6.060;2023-08-21T05:52:33;3.17;;;2.30;;
12699;SDS011;6414;49.570;6.060;2023-08-21T05:55:19;1.80;;;1.17;;
12699;SDS011;6414;49.570;6.060;2023-08-21T05:58:06;1.83;;;1.60;;
12699;SDS011;6414;49.570;6.060;2023-08-21T06:00:52;2.33;;;1.77;;
12699;SDS011;6414;49.570;6.060;2023-08-21T06:03:38;1.50;;;1.40;;
12699;SDS011;6414;49.570;6.060;2023-08-21T06:06:24;3.37;;;2.35;;
12699;SDS011;6414;49.570;6.060;2023-08-21T06:09:10;4.27;;;1.50;;
12699;SDS011;6414;49.570;6.060;2023-08-21T06:11:57;2.77;;;1.57;;
12699;SDS011;6414;49.570;6.060;2023-08-21T06:14:43;10.37;;;1.87;;
12699;SDS011;6414;49.570;6.060;2023-08-21T06:17:28;3.93;;;2.17;;
12699;SDS011;6414;49.570;6.060;2023-08-21T06:20:14;5.43;;;2.43;;
12699;SDS011;6414;49.570;6.060;2023-08-21T06:23:00;6.63;;;2.60;;
12699;SDS011;6414;49.570;6.060;2023-08-21T06:25:47;3.70;;;1.97;;
12699;SDS011;6414;49.570;6.060;2023-08-21T06:28:33;3.85;;;3.00;;
12699;SDS011;6414;49.570;6.060;2023-08-21T06:31:19;8.10;;;2.53;;
12699;SDS011;6414;49.570;6.060;2023-08-21T06:34:05;2.97;;;2.13;;
12699;SDS011;6414;49.570;6.060;2023-08-21T06:36:52;4.57;;;1.87;;
12699;SDS011;6414;49.570;6.060;2023-08-21T06:39:37;4.85;;;3.22;;
12699;SDS011;6414;49.570;6.060;2023-08-21T06:42:23;2.67;;;2.10;;
12699;SDS011;6414;49.570;6.060;2023-08-21T06:45:09;5.30;;;2.27;;
12699;SDS011;6414;49.570;6.060;2023-08-21T06:47:55;2.43;;;1.70;;
12699;SDS011;6414;49.570;6.060;2023-08-21T06:50:41;3.80;;;2.10;;
12699;SDS011;6414;49.570;6.060;2023-08-21T06:53:28;3.40;;;2.50;;
12699;SDS011;6414;49.570;6.060;2023-08-21T06:56:14;3.67;;;2.27;;
12699;SDS011;6414;49.570;6.060;2023-08-21T06:59:00;2.93;;;1.90;;
12699;SDS011;6414;49.570;6.060;2023-08-21T07:01:46;4.28;;;2.65;;
12699;SDS011;6414;49.570;6.060;2023-08-21T07:04:33;3.80;;;2.60;;
12699;SDS011;6414;49.570;6.060;2023-08-21T07:07:19;6.00;;;2.62;;
12699;SDS011;6414;49.570;6.060;2023-08-21T07:10:05;3.62;;;2.87;;
12699;SDS011;6414;49.570;6.060;2023-08-21T07:12:51;4.23;;;2.50;;
12699;SDS011;6414;49.570;6.060;2023-08-21T07:15:36;4.30;;;2.67;;
12699;SDS011;6414;49.570;6.060;2023-08-21T07:18:22;2.63;;;2.20;;
12699;SDS011;6414;49.570;6.060;2023-08-21T07:21:09;3.97;;;2.00;;
12699;SDS011;6414;49.570;6.060;2023-08-21T07:23:56;3.00;;;2.03;;
12699;SDS011;6414;49.570;6.060;2023-08-21T07:26:41;3.47;;;2.17;;
12699;SDS011;6414;49.570;6.060;2023-08-21T07:29:29;4.25;;;2.90;;
12699;SDS011;6414;49.570;6.060;2023-08-21T07:32:14;6.53;;;2.20;;
12699;SDS011;6414;49.570;6.060;2023-08-21T07:35:00;4.20;;;2.63;;
12699;SDS011;6414;49.570;6.060;2023-08-21T07:37:46;3.07;;;2.43;;
12699;SDS011;6414;49.570;6.060;2023-08-21T07:40:32;3.10;;;2.10;;
12699;SDS011;6414;49.570;6.060;2023-08-21T07:43:19;4.57;;;2.43;;
12699;SDS011;6414;49.570;6.060;2023-08-21T07:46:06;3.30;;;2.70;;
12699;SDS011;6414;49.570;6.060;2023-08-21T07:48:52;7.67;;;2.60;;
12699;SDS011;6414;49.570;6.060;2023-08-21T07:51:38;5.23;;;2.63;;
12699;SDS011;6414;49.570;6.060;2023-08-21T07:54:24;4.17;;;2.70;;
12699;SDS011;6414;49.570;6.060;2023-08-21T07:57:11;4.60;;;3.28;;
12699;SDS011;6414;49.570;6.060;2023-08-21T07:59:56;6.40;;;2.50;;
12699;SDS011;6414;49.570;6.060;2023-08-21T08:02:42;8.23;;;2.67;;
12699;SDS011;6414;49.570;6.060;2023-08-21T08:05:29;2.63;;;1.90;;
12699;SDS011;6414;49.570;6.060;2023-08-21T08:08:18;2.13;;;1.67;;
12699;SDS011;6414;49.570;6.060;2023-08-21T08:11:04;2.73;;;1.80;;
12699;SDS011;6414;49.570;6.060;2023-08-21T08:13:51;1.87;;;1.63;;
12699;SDS011;6414;49.570;6.060;2023-08-21T08:16:37;5.20;;;2.27;;
12699;SDS011;6414;49.570;6.060;2023-08-21T08:19:23;3.30;;;2.20;;
12699;SDS011;6414;49.570;6.060;2023-08-21T08:22:09;3.57;;;2.17;;
12699;SDS011;6414;49.570;6.060;2023-08-21T08:24:55;2.17;;;1.60;;
12699;SDS011;6414;49.570;6.060;2023-08-21T08:27:42;2.63;;;1.93;;
12699;SDS011;6414;49.570;6.060;2023-08-21T08:30:28;3.27;;;1.43;;
12699;SDS011;6414;49.570;6.060;2023-08-21T08:33:14;9.20;;;1.53;;
12699;SDS011;6414;49.570;6.060;2023-08-21T08:36:00;2.67;;;1.53;;
12699;SDS011;6414;49.570;6.060;2023-08-21T08:38:46;1.57;;;1.13;;
12699;SDS011;6414;49.570;6.060;2023-08-21T08:41:41;1.87;;;1.17;;
12699;SDS011;6414;49.570;6.060;2023-08-21T08:44:24;0.80;;;0.80;;
12699;SDS011;6414;49.570;6.060;2023-08-21T08:47:11;2.20;;;1.20;;
12699;SDS011;6414;49.570;6.060;2023-08-21T08:49:57;2.43;;;1.50;;
12699;SDS011;6414;49.570;6.060;2023-08-21T08:52:43;1.53;;;1.27;;
12699;SDS011;6414;49.570;6.060;2023-08-21T08:55:30;1.57;;;1.00;;
12699;SDS011;6414;49.570;6.060;2023-08-21T08:58:17;5.47;;;1.00;;
12699;SDS011;6414;49.570;6.060;2023-08-21T09:01:03;0.80;;;0.80;;
12699;SDS011;6414;49.570;6.060;2023-08-21T09:03:49;1.30;;;1.10;;
12699;SDS011;6414;49.570;6.060;2023-08-21T09:06:35;1.30;;;1.20;;
12699;SDS011;6414;49.570;6.060;2023-08-21T09:09:21;2.30;;;1.43;;
12699;SDS011;6414;49.570;6.060;2023-08-21T09:12:12;5.13;;;1.80;;
12699;SDS011;6414;49.570;6.060;2023-08-21T09:14:57;6.00;;;1.73;;
12699;SDS011;6414;49.570;6.060;2023-08-21T09:17:43;1.90;;;1.40;;
12699;SDS011;6414;49.570;6.060;2023-08-21T09:20:40;2.43;;;1.33;;
12699;SDS011;6414;49.570;6.060;2023-08-21T09:23:21;2.20;;;1.40;;
12699;SDS011;6414;49.570;6.060;2023-08-21T09:26:07;2.85;;;0.98;;
12699;SDS011;6414;49.570;6.060;2023-08-21T09:28:54;1.42;;;0.90;;
12699;SDS011;6414;49.570;6.060;2023-08-21T09:31:40;1.77;;;1.00;;
12699;SDS011;6414;49.570;6.060;2023-08-21T09:34:26;1.33;;;1.23;;
12699;SDS011;6414;49.570;6.060;2023-08-21T09:37:12;1.55;;;1.05;;
12699;SDS011;6414;49.570;6.060;2023-08-21T09:40:00;0.88;;;0.88;;
12699;SDS011;6414;49.570;6.060;2023-08-21T09:42:46;1.83;;;0.98;;
12699;SDS011;6414;49.570;6.060;2023-08-21T09:45:32;1.83;;;1.15;;
12699;SDS011;6414;49.570;6.060;2023-08-21T09:48:19;2.90;;;0.80;;
12699;SDS011;6414;49.570;6.060;2023-08-21T09:51:04;2.12;;;0.80;;
12699;SDS011;6414;49.570;6.060;2023-08-21T09:53:51;1.33;;;0.93;;
12699;SDS011;6414;49.570;6.060;2023-08-21T09:56:37;0.70;;;0.70;;
12699;SDS011;6414;49.570;6.060;2023-08-21T09:59:23;1.35;;;0.80;;
12699;SDS011;6414;49.570;6.060;2023-08-21T10:02:10;1.55;;;1.00;;
12699;SDS011;6414;49.570;6.060;2023-08-21T10:04:56;1.05;;;0.70;;
12699;SDS011;6414;49.570;6.060;2023-08-21T10:07:43;0.88;;;0.80;;
12699;SDS011;6414;49.570;6.060;2023-08-21T10:10:32;1.52;;;0.80;;
12699;SDS011;6414;49.570;6.060;2023-08-21T10:13:15;1.10;;;0.85;;
12699;SDS011;6414;49.570;6.060;2023-08-21T10:16:01;0.98;;;0.80;;
12699;SDS011;6414;49.570;6.060;2023-08-21T10:18:47;2.03;;;1.05;;
12699;SDS011;6414;49.570;6.060;2023-08-21T10:21:36;1.20;;;0.90;;
12699;SDS011;6414;49.570;6.060;2023-08-21T10:24:26;1.05;;;0.82;;
12699;SDS011;6414;49.570;6.060;2023-08-21T10:27:11;3.85;;;1.20;;
12699;SDS011;6414;49.570;6.060;2023-08-21T10:29:57;1.05;;;0.95;;
12699;SDS011;6414;49.570;6.060;2023-08-21T10:32:47;6.60;;;0.80;;
12699;SDS011;6414;49.570;6.060;2023-08-21T10:35:30;1.05;;;0.68;;
12699;SDS011;6414;49.570;6.060;2023-08-21T10:38:16;1.15;;;1.05;;
12699;SDS011;6414;49.570;6.060;2023-08-21T10:41:06;1.25;;;1.00;;
12699;SDS011;6414;49.570;6.060;2023-08-21T10:43:51;1.55;;;1.00;;
12699;SDS011;6414;49.570;6.060;2023-08-21T10:46:50;1.12;;;0.85;;
12699;SDS011;6414;49.570;6.060;2023-08-21T10:49:36;1.80;;;1.00;;
12699;SDS011;6414;49.570;6.060;2023-08-21T10:52:29;1.10;;;0.67;;
12699;SDS011;6414;49.570;6.060;2023-08-21T10:55:15;0.67;;;0.67;;
12699;SDS011;6414;49.570;6.060;2023-08-21T10:58:00;1.10;;;0.90;;
12699;SDS011;6414;49.570;6.060;2023-08-21T11:00:46;5.40;;;0.77;;
12699;SDS011;6414;49.570;6.060;2023-08-21T11:03:33;1.30;;;1.00;;
12699;SDS011;6414;49.570;6.060;2023-08-21T11:06:19;1.17;;;0.90;;
12699;SDS011;6414;49.570;6.060;2023-08-21T11:09:05;1.25;;;0.90;;
12699;SDS011;6414;49.570;6.060;2023-08-21T11:11:51;2.70;;;1.10;;
12699;SDS011;6414;49.570;6.060;2023-08-21T11:14:37;1.20;;;0.90;;
12699;SDS011;6414;49.570;6.060;2023-08-21T11:17:23;1.10;;;0.97;;
12699;SDS011;6414;49.570;6.060;2023-08-21T11:20:09;1.90;;;0.83;;
12699;SDS011;6414;49.570;6.060;2023-08-21T11:22:56;2.45;;;1.10;;
12699;SDS011;6414;49.570;6.060;2023-08-21T11:25:42;2.10;;;1.00;;
12699;SDS011;6414;49.570;6.060;2023-08-21T11:28:28;0.80;;;0.80;;
12699;SDS011;6414;49.570;6.060;2023-08-21T11:31:15;1.67;;;0.97;;
12699;SDS011;6414;49.570;6.060;2023-08-21T11:34:01;1.40;;;1.10;;
12699;SDS011;6414;49.570;6.060;2023-08-21T11:36:47;2.13;;;1.03;;
12699;SDS011;6414;49.570;6.060;2023-08-21T11:39:44;0.80;;;0.80;;
12699;SDS011;6414;49.570;6.060;2023-08-21T11:42:38;2.53;;;0.80;;
12699;SDS011;6414;49.570;6.060;2023-08-21T11:45:24;1.03;;;0.77;;
12699;SDS011;6414;49.570;6.060;2023-08-21T11:48:10;1.67;;;0.87;;
12699;SDS011;6414;49.570;6.060;2023-08-21T11:50:56;1.00;;;0.60;;
12699;SDS011;6414;49.570;6.060;2023-08-21T11:53:41;0.73;;;0.73;;
12699;SDS011;6414;49.570;6.060;2023-08-21T11:56:27;0.87;;;0.80;;
12699;SDS011;6414;49.570;6.060;2023-08-21T11:59:23;3.07;;;1.10;;
12699;SDS011;6414;49.570;6.060;2023-08-21T12:02:44;0.80;;;0.73;;
12699;SDS011;6414;49.570;6.060;2023-08-21T12:05:13;0.60;;;0.60;;
12699;SDS011;6414;49.570;6.060;2023-08-21T12:07:56;1.40;;;1.00;;
12699;SDS011;6414;49.570;6.060;2023-08-21T12:10:43;1.63;;;1.00;;
12699;SDS011;6414;49.570;6.060;2023-08-21T12:13:29;1.13;;;0.73;;
12699;SDS011;6414;49.570;6.060;2023-08-21T12:16:15;2.93;;;0.60;;
12699;SDS011;6414;49.570;6.060;2023-08-21T12:19:02;0.93;;;0.63;;
12699;SDS011;6414;49.570;6.060;2023-08-21T12:21:48;1.07;;;0.83;;
12699;SDS011;6414;49.570;6.060;2023-08-21T12:24:34;1.07;;;0.97;;
12699;SDS011;6414;49.570;6.060;2023-08-21T12:27:20;4.37;;;0.80;;
12699;SDS011;6414;49.570;6.060;2023-08-21T12:30:07;2.37;;;0.97;;
12699;SDS011;6414;49.570;6.060;2023-08-21T12:32:53;1.10;;;0.83;;
12699;SDS011;6414;49.570;6.060;2023-08-21T12:35:39;0.73;;;0.67;;
12699;SDS011;6414;49.570;6.060;2023-08-21T12:38:25;1.13;;;0.97;;
12699;SDS011;6414;49.570;6.060;2023-08-21T12:41:11;0.70;;;0.60;;
12699;SDS011;6414;49.570;6.060;2023-08-21T12:43:57;1.30;;;1.10;;
12699;SDS011;6414;49.570;6.060;2023-08-21T12:46:43;1.20;;;1.00;;
12699;SDS011;6414;49.570;6.060;2023-08-21T12:49:29;1.00;;;0.70;;
12699;SDS011;6414;49.570;6.060;2023-08-21T12:52:15;0.95;;;0.85;;
12699;SDS011;6414;49.570;6.060;2023-08-21T12:55:01;9.23;;;1.17;;
12699;SDS011;6414;49.570;6.060;2023-08-21T12:57:48;0.50;;;0.50;;
12699;SDS011;6414;49.570;6.060;2023-08-21T13:00:34;0.80;;;0.73;;
12699;SDS011;6414;49.570;6.060;2023-08-21T13:03:20;1.00;;;0.70;;
12699;SDS011;6414;49.570;6.060;2023-08-21T13:06:06;1.90;;;1.00;;
12699;SDS011;6414;49.570;6.060;2023-08-21T13:08:53;0.83;;;0.60;;
12699;SDS011;6414;49.570;6.060;2023-08-21T13:11:39;1.37;;;0.83;;
12699;SDS011;6414;49.570;6.060;2023-08-21T13:14:25;0.50;;;0.50;;
12699;SDS011;6414;49.570;6.060;2023-08-21T13:17:12;1.40;;;1.10;;
12699;SDS011;6414;49.570;6.060;2023-08-21T13:19:58;0.60;;;0.57;;
12699;SDS011;6414;49.570;6.060;2023-08-21T13:22:45;1.90;;;0.93;;
12699;SDS011;6414;49.570;6.060;2023-08-21T13:25:31;0.87;;;0.70;;
12699;SDS011;6414;49.570;6.060;2023-08-21T13:28:17;1.57;;;0.90;;
12699;SDS011;6414;49.570;6.060;2023-08-21T13:31:04;2.07;;;1.00;;
12699;SDS011;6414;49.570;6.060;2023-08-21T13:33:50;1.40;;;0.87;;
12699;SDS011;6414;49.570;6.060;2023-08-21T13:36:37;1.17;;;0.97;;
12699;SDS011;6414;49.570;6.060;2023-08-21T13:39:22;3.03;;;1.10;;
12699;SDS011;6414;49.570;6.060;2023-08-21T13:42:08;1.35;;;1.05;;
12699;SDS011;6414;49.570;6.060;2023-08-21T13:44:54;1.10;;;0.97;;
12699;SDS011;6414;49.570;6.060;2023-08-21T13:47:41;1.63;;;0.93;;
12699;SDS011;6414;49.570;6.060;2023-08-21T13:50:26;0.90;;;0.70;;
12699;SDS011;6414;49.570;6.060;2023-08-21T13:53:13;1.20;;;0.90;;
12699;SDS011;6414;49.570;6.060;2023-08-21T13:55:59;1.23;;;0.93;;
12699;SDS011;6414;49.570;6.060;2023-08-21T13:58:46;3.13;;;1.03;;
12699;SDS011;6414;49.570;6.060;2023-08-21T14:01:32;2.93;;;0.90;;
12699;SDS011;6414;49.570;6.060;2023-08-21T14:04:18;1.00;;;0.90;;
12699;SDS011;6414;49.570;6.060;2023-08-21T14:07:04;1.37;;;0.90;;
12699;SDS011;6414;49.570;6.060;2023-08-21T14:09:51;0.80;;;0.57;;
12699;SDS011;6414;49.570;6.060;2023-08-21T14:12:38;1.57;;;0.73;;
12699;SDS011;6414;49.570;6.060;2023-08-21T14:15:24;1.70;;;1.20;;
12699;SDS011;6414;49.570;6.060;2023-08-21T14:18:10;1.00;;;0.90;;
12699;SDS011;6414;49.570;6.060;2023-08-21T14:20:56;1.30;;;1.00;;
12699;SDS011;6414;49.570;6.060;2023-08-21T14:23:42;1.00;;;0.70;;
12699;SDS011;6414;49.570;6.060;2023-08-21T14:26:29;1.70;;;1.00;;
12699;SDS011;6414;49.570;6.060;2023-08-21T14:29:15;1.67;;;1.10;;
12699;SDS011;6414;49.570;6.060;2023-08-21T14:32:01;1.70;;;0.90;;
12699;SDS011;6414;49.570;6.060;2023-08-21T14:34:48;0.67;;;0.67;;
12699;SDS011;6414;49.570;6.060;2023-08-21T14:37:35;0.63;;;0.63;;
12699;SDS011;6414;49.570;6.060;2023-08-21T14:40:20;2.33;;;1.00;;
12699;SDS011;6414;49.570;6.060;2023-08-21T14:43:06;2.03;;;1.17;;
12699;SDS011;6414;49.570;6.060;2023-08-21T14:45:53;1.37;;;0.80;;
12699;SDS011;6414;49.570;6.060;2023-08-21T14:48:40;1.13;;;0.77;;
12699;SDS011;6414;49.570;6.060;2023-08-21T14:51:27;1.00;;;0.90;;
12699;SDS011;6414;49.570;6.060;2023-08-21T14:54:12;1.70;;;1.17;;
12699;SDS011;6414;49.570;6.060;2023-08-21T14:56:58;1.07;;;0.80;;
12699;SDS011;6414;49.570;6.060;2023-08-21T14:59:44;1.93;;;1.17;;
12699;SDS011;6414;49.570;6.060;2023-08-21T15:02:31;1.63;;;1.00;;
12699;SDS011;6414;49.570;6.060;2023-08-21T15:05:17;1.13;;;0.77;;
12699;SDS011;6414;49.570;6.060;2023-08-21T15:08:03;1.20;;;1.10;;
12699;SDS011;6414;49.570;6.060;2023-08-21T15:10:49;0.97;;;0.80;;
12699;SDS011;6414;49.570;6.060;2023-08-21T15:13:36;4.83;;;0.97;;
12699;SDS011;6414;49.570;6.060;2023-08-21T15:16:24;2.25;;;1.20;;
12699;SDS011;6414;49.570;6.060;2023-08-21T15:19:11;2.75;;;1.10;;
12699;SDS011;6414;49.570;6.060;2023-08-21T15:21:57;1.57;;;0.80;;
12699;SDS011;6414;49.570;6.060;2023-08-21T15:24:43;1.17;;;0.90;;
12699;SDS011;6414;49.570;6.060;2023-08-21T15:27:29;1.47;;;0.90;;
12699;SDS011;6414;49.570;6.060;2023-08-21T15:30:15;0.80;;;0.80;;
12699;SDS011;6414;49.570;6.060;2023-08-21T15:33:02;0.87;;;0.80;;
12699;SDS011;6414;49.570;6.060;2023-08-21T15:35:48;1.50;;;0.90;;
12699;SDS011;6414;49.570;6.060;2023-08-21T15:38:34;3.00;;;1.20;;
12699;SDS011;6414;49.570;6.060;2023-08-21T15:41:21;5.10;;;1.17;;
12699;SDS011;6414;49.570;6.060;2023-08-21T15:44:07;2.90;;;1.07;;
12699;SDS011;6414;49.570;6.060;2023-08-21T15:46:53;2.20;;;1.20;;
12699;SDS011;6414;49.570;6.060;2023-08-21T15:49:39;1.33;;;1.00;;
12699;SDS011;6414;49.570;6.060;2023-08-21T15:52:25;2.03;;;1.00;;
12699;SDS011;6414;49.570;6.060;2023-08-21T15:55:11;3.77;;;0.70;;
12699;SDS011;6414;49.570;6.060;2023-08-21T15:57:57;0.60;;;0.53;;
12699;SDS011;6414;49.570;6.060;2023-08-21T16:00:44;2.77;;;0.70;;
12699;SDS011;6414;49.570;6.060;2023-08-21T16:03:31;0.67;;;0.67;;
12699;SDS011;6414;49.570;6.060;2023-08-21T16:06:17;0.80;;;0.80;;
12699;SDS011;6414;49.570;6.060;2023-08-21T16:09:03;1.10;;;0.80;;
12699;SDS011;6414;49.570;6.060;2023-08-21T16:11:49;0.97;;;0.70;;
12699;SDS011;6414;49.570;6.060;2023-08-21T16:14:36;1.93;;;1.20;;
12699;SDS011;6414;49.570;6.060;2023-08-21T16:17:21;1.13;;;0.90;;
12699;SDS011;6414;49.570;6.060;2023-08-21T16:20:07;0.67;;;0.67;;
12699;SDS011;6414;49.570;6.060;2023-08-21T16:22:54;1.83;;;1.10;;
12699;SDS011;6414;49.570;6.060;2023-08-21T16:25:40;1.27;;;1.10;;
12699;SDS011;6414;49.570;6.060;2023-08-21T16:28:25;2.03;;;1.00;;
12699;SDS011;6414;49.570;6.060;2023-08-21T16:31:15;4.73;;;1.13;;
12699;SDS011;6414;49.570;6.060;2023-08-21T16:34:01;0.90;;;0.70;;
12699;SDS011;6414;49.570;6.060;2023-08-21T16:36:46;1.17;;;0.77;;
12699;SDS011;6414;49.570;6.060;2023-08-21T16:39:32;1.10;;;0.90;;
12699;SDS011;6414;49.570;6.060;2023-08-21T16:42:19;2.43;;;0.80;;
12699;SDS011;6414;49.570;6.060;2023-08-21T16:45:06;0.53;;;0.53;;
12699;SDS011;6414;49.570;6.060;2023-08-21T16:47:52;8.60;;;1.07;;
12699;SDS011;6414;49.570;6.060;2023-08-21T16:50:38;0.57;;;0.57;;
12699;SDS011;6414;49.570;6.060;2023-08-21T16:53:24;1.90;;;0.90;;
12699;SDS011;6414;49.570;6.060;2023-08-21T16:56:10;2.10;;;1.07;;
12699;SDS011;6414;49.570;6.060;2023-08-21T16:58:56;3.73;;;1.10;;
12699;SDS011;6414;49.570;6.060;2023-08-21T17:01:42;0.50;;;0.43;;
12699;SDS011;6414;49.570;6.060;2023-08-21T17:04:28;2.00;;;1.30;;